createdAt,value
2023-02-16T00:00:05.675Z,99104.00
2023-02-16T00:00:15.688Z,99104.00
2023-02-16T00:00:25.694Z,99104.00
2023-02-16T00:00:35.814Z,99106.00
2023-02-16T00:00:45.820Z,99104.00
2023-02-16T00:00:55.830Z,99102.00
2023-02-16T00:01:06.010Z,99104.00
2023-02-16T00:01:16.198Z,99104.00
2023-02-16T00:01:26.193Z,99104.00
2023-02-16T00:01:36.210Z,99104.00
2023-02-16T00:01:46.206Z,99108.00
2023-02-16T00:01:56.312Z,99106.00
2023-02-16T00:02:06.384Z,99108.00
2023-02-16T00:02:16.503Z,99106.00
2023-02-16T00:02:26.574Z,99104.00
2023-02-16T00:02:36.721Z,99104.00
2023-02-16T00:02:46.639Z,99106.00
2023-02-16T00:02:56.831Z,99106.00
2023-02-16T00:03:06.896Z,99108.00
2023-02-16T00:03:16.933Z,99108.00
2023-02-16T00:03:26.994Z,99106.00
2023-02-16T00:03:37.116Z,99106.00
2023-02-16T00:03:47.132Z,99106.00
2023-02-16T00:03:57.141Z,99108.00
2023-02-16T00:04:07.270Z,99106.00
2023-02-16T00:04:17.273Z,99108.00
2023-02-16T00:04:27.399Z,99108.00
2023-02-16T00:04:37.392Z,99108.00
2023-02-16T00:04:47.396Z,99108.00
2023-02-16T00:04:57.400Z,99106.00
2023-02-16T00:05:07.781Z,99106.00
2023-02-16T00:05:17.783Z,99106.00
2023-02-16T00:05:27.798Z,99106.00
2023-02-16T00:05:37.801Z,99106.00
2023-02-16T00:05:47.814Z,99108.00
2023-02-16T00:05:57.821Z,99106.00
2023-02-16T00:06:07.834Z,99106.00
2023-02-16T00:06:17.842Z,99106.00
2023-02-16T00:06:27.961Z,99106.00
2023-02-16T00:06:37.961Z,99106.00
2023-02-16T00:06:48.213Z,99108.00
2023-02-16T00:06:58.233Z,99108.00
2023-02-16T00:07:08.221Z,99108.00
2023-02-16T00:07:18.226Z,99110.00
2023-02-16T00:07:28.240Z,99108.00
2023-02-16T00:07:38.242Z,99108.00
2023-02-16T00:07:48.263Z,99110.00
2023-02-16T00:07:58.265Z,99112.00
2023-02-16T00:08:08.271Z,99110.00
2023-02-16T00:08:18.271Z,99110.00
2023-02-16T00:08:28.273Z,99110.00
2023-02-16T00:08:38.283Z,99112.00
2023-02-16T00:08:48.321Z,99112.00
2023-02-16T00:08:58.307Z,99108.00
2023-02-16T00:09:08.435Z,99114.00
2023-02-16T00:09:18.434Z,99112.00
2023-02-16T00:09:28.432Z,99112.00
2023-02-16T00:09:38.692Z,99114.00
2023-02-16T00:09:48.814Z,99114.00
2023-02-16T00:09:58.825Z,99110.00
2023-02-16T00:10:09.095Z,99112.00
2023-02-16T00:10:19.101Z,99112.00
2023-02-16T00:10:29.233Z,99112.00
2023-02-16T00:10:39.486Z,99112.00
2023-02-16T00:10:49.611Z,99114.00
2023-02-16T00:10:59.621Z,99112.00
2023-02-16T00:11:09.886Z,99114.00
2023-02-16T00:11:19.885Z,99112.00
2023-02-16T00:11:30.005Z,99112.00
2023-02-16T00:11:40.273Z,99114.00
2023-02-16T00:11:50.275Z,99114.00
2023-02-16T00:12:00.283Z,99112.00
2023-02-16T00:12:10.662Z,99114.00
2023-02-16T00:12:20.664Z,99112.00
2023-02-16T00:12:30.680Z,99114.00
2023-02-16T00:12:40.680Z,99112.00
2023-02-16T00:12:50.814Z,99114.00
2023-02-16T00:13:00.814Z,99114.00
2023-02-16T00:13:10.826Z,99112.00
2023-02-16T00:13:20.837Z,99116.00
2023-02-16T00:13:30.838Z,99114.00
2023-02-16T00:13:40.841Z,99114.00
2023-02-16T00:13:51.124Z,99114.00
2023-02-16T00:14:01.125Z,99114.00
2023-02-16T00:14:11.244Z,99114.00
2023-02-16T00:14:21.641Z,99116.00
2023-02-16T00:14:31.678Z,99117.00
2023-02-16T00:14:41.692Z,99117.00
2023-02-16T00:14:51.954Z,99116.00
2023-02-16T00:15:01.969Z,99116.00
2023-02-16T00:15:11.978Z,99116.00
2023-02-16T00:15:21.987Z,99116.00
2023-02-16T00:15:32.092Z,99117.00
2023-02-16T00:15:42.125Z,99116.00
2023-02-16T00:15:52.222Z,99114.00
2023-02-16T00:16:02.223Z,99116.00
2023-02-16T00:16:12.236Z,99116.00
2023-02-16T00:16:22.311Z,99117.00
2023-02-16T00:16:32.306Z,99117.00
2023-02-16T00:16:42.316Z,99116.00
2023-02-16T00:16:52.436Z,99117.00
2023-02-16T00:17:02.444Z,99117.00
2023-02-16T00:17:12.564Z,99116.00
2023-02-16T00:17:22.572Z,99116.00
2023-02-16T00:17:32.582Z,99116.00
2023-02-16T00:17:42.726Z,99114.00
2023-02-16T00:17:52.842Z,99116.00
2023-02-16T00:18:02.877Z,99117.00
2023-02-16T00:18:13.130Z,99116.00
2023-02-16T00:18:23.127Z,99117.00
2023-02-16T00:18:33.132Z,99117.00
2023-02-16T00:18:43.143Z,99114.00
2023-02-16T00:18:53.168Z,99117.00
2023-02-16T00:19:03.169Z,99116.00
2023-02-16T00:19:13.178Z,99116.00
2023-02-16T00:19:23.207Z,99116.00
2023-02-16T00:19:33.228Z,99116.00
2023-02-16T00:19:43.243Z,99116.00
2023-02-16T00:19:53.254Z,99117.00
2023-02-16T00:20:03.262Z,99117.00
2023-02-16T00:20:13.379Z,99116.00
2023-02-16T00:20:23.379Z,99114.00
2023-02-16T00:20:33.400Z,99116.00
2023-02-16T00:20:43.396Z,99119.00
2023-02-16T00:20:53.519Z,99116.00
2023-02-16T00:21:03.939Z,99114.00
2023-02-16T00:21:13.726Z,99116.00
2023-02-16T00:21:23.740Z,99116.00
2023-02-16T00:21:33.759Z,99116.00
2023-02-16T00:21:43.763Z,99116.00
2023-02-16T00:21:53.772Z,99114.00
2023-02-16T00:22:03.778Z,99114.00
2023-02-16T00:22:13.798Z,99114.00
2023-02-16T00:22:23.805Z,99114.00
2023-02-16T00:22:33.810Z,99116.00
2023-02-16T00:22:43.832Z,99114.00
2023-02-16T00:22:53.836Z,99116.00
2023-02-16T00:23:03.845Z,99116.00
2023-02-16T00:23:13.854Z,99114.00
2023-02-16T00:23:23.876Z,99114.00
2023-02-16T00:23:33.880Z,99116.00
2023-02-16T00:23:43.878Z,99116.00
2023-02-16T00:23:53.914Z,99116.00
2023-02-16T00:24:03.901Z,99116.00
2023-02-16T00:24:14.022Z,99116.00
2023-02-16T00:24:24.025Z,99116.00
2023-02-16T00:24:34.047Z,99112.00
2023-02-16T00:24:44.052Z,99116.00
2023-02-16T00:24:54.180Z,99114.00
2023-02-16T00:25:04.316Z,99114.00
2023-02-16T00:25:14.434Z,99114.00
2023-02-16T00:25:24.440Z,99114.00
2023-02-16T00:25:34.709Z,99116.00
2023-02-16T00:25:44.715Z,99114.00
2023-02-16T00:25:54.736Z,99117.00
2023-02-16T00:26:04.749Z,99114.00
2023-02-16T00:26:14.773Z,99114.00
2023-02-16T00:26:24.773Z,99117.00
2023-02-16T00:26:34.777Z,99114.00
2023-02-16T00:26:44.784Z,99114.00
2023-02-16T00:26:54.906Z,99114.00
2023-02-16T00:27:04.906Z,99117.00
2023-02-16T00:27:15.244Z,99117.00
2023-02-16T00:27:25.243Z,99116.00
2023-02-16T00:27:35.240Z,99116.00
2023-02-16T00:27:45.241Z,99117.00
2023-02-16T00:27:55.384Z,99116.00
2023-02-16T00:28:05.397Z,99117.00
2023-02-16T00:28:15.407Z,99117.00
2023-02-16T00:28:25.402Z,99116.00
2023-02-16T00:28:35.414Z,99119.00
2023-02-16T00:28:45.411Z,99119.00
2023-02-16T00:28:55.670Z,99117.00
2023-02-16T00:29:05.669Z,99117.00
2023-02-16T00:29:15.672Z,99114.00
2023-02-16T00:29:25.686Z,99116.00
2023-02-16T00:29:35.747Z,99117.00
2023-02-16T00:29:46.086Z,99114.00
2023-02-16T00:29:55.883Z,99116.00
2023-02-16T00:30:05.937Z,99116.00
2023-02-16T00:30:16.022Z,99116.00
2023-02-16T00:30:26.100Z,99116.00
2023-02-16T00:30:36.199Z,99116.00
2023-02-16T00:30:46.302Z,99117.00
2023-02-16T00:30:56.439Z,99117.00
2023-02-16T00:31:06.899Z,99116.00
2023-02-16T00:31:16.950Z,99116.00
2023-02-16T00:31:27.071Z,99114.00
2023-02-16T00:31:37.137Z,99116.00
2023-02-16T00:31:47.472Z,99117.00
2023-02-16T00:31:57.509Z,99117.00
2023-02-16T00:32:07.597Z,99116.00
2023-02-16T00:32:17.822Z,99112.00
2023-02-16T00:32:27.554Z,99116.00
2023-02-16T00:32:37.573Z,99114.00
2023-02-16T00:32:47.582Z,99116.00
2023-02-16T00:32:57.614Z,99116.00
2023-02-16T00:33:07.616Z,99116.00
2023-02-16T00:33:17.626Z,99114.00
2023-02-16T00:33:27.657Z,99114.00
2023-02-16T00:33:37.666Z,99112.00
2023-02-16T00:33:47.674Z,99114.00
2023-02-16T00:33:57.666Z,99114.00
2023-02-16T00:34:07.684Z,99116.00
2023-02-16T00:34:17.680Z,99112.00
2023-02-16T00:34:27.694Z,99114.00
2023-02-16T00:34:37.705Z,99112.00
2023-02-16T00:34:47.707Z,99110.00
2023-02-16T00:34:57.707Z,99110.00
2023-02-16T00:35:07.716Z,99110.00
2023-02-16T00:35:17.732Z,99114.00
2023-02-16T00:35:27.786Z,99112.00
2023-02-16T00:35:37.791Z,99112.00
2023-02-16T00:35:47.800Z,99112.00
2023-02-16T00:35:57.805Z,99112.00
2023-02-16T00:36:07.813Z,99112.00
2023-02-16T00:36:17.941Z,99110.00
2023-02-16T00:36:28.196Z,99110.00
2023-02-16T00:36:38.229Z,99112.00
2023-02-16T00:36:48.217Z,99112.00
2023-02-16T00:36:58.239Z,99112.00
2023-02-16T00:37:08.247Z,99110.00
2023-02-16T00:37:18.256Z,99110.00
2023-02-16T00:37:28.264Z,99112.00
2023-02-16T00:37:38.270Z,99110.00
2023-02-16T00:37:48.286Z,99108.00
2023-02-16T00:37:58.293Z,99112.00
2023-02-16T00:38:08.300Z,99112.00
2023-02-16T00:38:18.320Z,99112.00
2023-02-16T00:38:28.321Z,99112.00
2023-02-16T00:38:38.326Z,99110.00
2023-02-16T00:38:48.339Z,99110.00
2023-02-16T00:38:58.372Z,99108.00
2023-02-16T00:39:08.351Z,99112.00
2023-02-16T00:39:18.731Z,99110.00
2023-02-16T00:39:28.753Z,99108.00
2023-02-16T00:39:38.753Z,99112.00
2023-02-16T00:39:48.745Z,99108.00
2023-02-16T00:39:58.755Z,99108.00
2023-02-16T00:40:08.757Z,99108.00
2023-02-16T00:40:18.882Z,99108.00
2023-02-16T00:40:28.887Z,99108.00
2023-02-16T00:40:38.892Z,99106.00
2023-02-16T00:40:48.908Z,99106.00
2023-02-16T00:40:59.151Z,99108.00
2023-02-16T00:41:09.169Z,99108.00
2023-02-16T00:41:19.166Z,99108.00
2023-02-16T00:41:29.166Z,99110.00
2023-02-16T00:41:39.289Z,99108.00
2023-02-16T00:41:49.298Z,99108.00
2023-02-16T00:41:59.295Z,99108.00
2023-02-16T00:42:09.303Z,99108.00
2023-02-16T00:42:19.308Z,99108.00
2023-02-16T00:42:29.319Z,99108.00
2023-02-16T00:42:39.578Z,99106.00
2023-02-16T00:42:49.589Z,99108.00
2023-02-16T00:42:59.594Z,99106.00
2023-02-16T00:43:09.605Z,99108.00
2023-02-16T00:43:19.618Z,99108.00
2023-02-16T00:43:29.624Z,99108.00
2023-02-16T00:43:39.634Z,99106.00
2023-02-16T00:43:49.644Z,99106.00
2023-02-16T00:43:59.660Z,99108.00
2023-02-16T00:44:09.665Z,99108.00
2023-02-16T00:44:19.674Z,99108.00
2023-02-16T00:44:29.692Z,99108.00
2023-02-16T00:44:39.701Z,99108.00
2023-02-16T00:44:49.696Z,99106.00
2023-02-16T00:44:59.721Z,99108.00
2023-02-16T00:45:09.741Z,99108.00
2023-02-16T00:45:19.742Z,99104.00
2023-02-16T00:45:29.746Z,99106.00
2023-02-16T00:45:39.751Z,99106.00
2023-02-16T00:45:49.798Z,99104.00
2023-02-16T00:45:59.839Z,99104.00
2023-02-16T00:46:09.903Z,99106.00
2023-02-16T00:46:19.956Z,99106.00
2023-02-16T00:46:30.047Z,99104.00
2023-02-16T00:46:40.064Z,99106.00
2023-02-16T00:46:50.075Z,99104.00
2023-02-16T00:47:00.078Z,99104.00
2023-02-16T00:47:10.193Z,99106.00
2023-02-16T00:47:20.227Z,99106.00
2023-02-16T00:47:30.249Z,99106.00
2023-02-16T00:47:40.235Z,99108.00
2023-02-16T00:47:50.494Z,99106.00
2023-02-16T00:48:00.498Z,99106.00
2023-02-16T00:48:10.509Z,99104.00
2023-02-16T00:48:20.497Z,99108.00
2023-02-16T00:48:30.507Z,99104.00
2023-02-16T00:48:40.508Z,99108.00
2023-02-16T00:48:50.628Z,99104.00
2023-02-16T00:49:00.645Z,99104.00
2023-02-16T00:49:10.661Z,99102.00
2023-02-16T00:49:20.679Z,99108.00
2023-02-16T00:49:30.944Z,99108.00
2023-02-16T00:49:40.957Z,99108.00
2023-02-16T00:49:51.064Z,99106.00
2023-02-16T00:50:01.330Z,99106.00
2023-02-16T00:50:11.457Z,99106.00
2023-02-16T00:50:21.466Z,99106.00
2023-02-16T00:50:31.734Z,99104.00
2023-02-16T00:50:41.749Z,99106.00
2023-02-16T00:50:51.772Z,99106.00
2023-02-16T00:51:02.021Z,99106.00
2023-02-16T00:51:25.155Z,99106.00
2023-02-16T00:51:26.147Z,99104.00
2023-02-16T00:51:31.900Z,99108.00
2023-02-16T00:51:42.049Z,99106.00
2023-02-16T00:51:52.050Z,99108.00
2023-02-16T00:52:02.070Z,99104.00
2023-02-16T00:52:12.069Z,99106.00
2023-02-16T00:52:22.087Z,99104.00
2023-02-16T00:52:32.087Z,99102.00
2023-02-16T00:52:42.104Z,99102.00
2023-02-16T00:52:52.156Z,99102.00
2023-02-16T00:53:02.148Z,99108.00
2023-02-16T00:53:12.145Z,99106.00
2023-02-16T00:53:22.171Z,99102.00
2023-02-16T00:53:32.165Z,99104.00
2023-02-16T00:53:42.161Z,99104.00
2023-02-16T00:53:52.279Z,99102.00
2023-02-16T00:54:02.335Z,99102.00
2023-02-16T00:54:12.318Z,99104.00
2023-02-16T00:54:22.314Z,99104.00
2023-02-16T00:54:32.605Z,99104.00
2023-02-16T00:54:42.598Z,99104.00
2023-02-16T00:54:52.601Z,99100.00
2023-02-16T00:55:02.628Z,99104.00
2023-02-16T00:55:12.639Z,99104.00
2023-02-16T00:55:22.635Z,99106.00
2023-02-16T00:55:32.631Z,99104.00
2023-02-16T00:55:42.649Z,99100.00
2023-02-16T00:55:52.652Z,99104.00
2023-02-16T00:56:02.659Z,99102.00
2023-02-16T00:56:12.671Z,99102.00
2023-02-16T00:56:22.689Z,99102.00
2023-02-16T00:56:32.704Z,99104.00
2023-02-16T00:56:42.719Z,99102.00
2023-02-16T00:56:52.729Z,99104.00
2023-02-16T00:57:02.861Z,99100.00
2023-02-16T00:57:12.813Z,99100.00
2023-02-16T00:57:22.817Z,99098.00
2023-02-16T00:57:32.943Z,99100.00
2023-02-16T00:57:42.950Z,99096.00
2023-02-16T00:57:52.940Z,99100.00
2023-02-16T00:58:02.949Z,99098.00
2023-02-16T00:58:12.954Z,99098.00
2023-02-16T00:58:22.988Z,99102.00
2023-02-16T00:58:33.245Z,99098.00
2023-02-16T00:58:43.265Z,99100.00
2023-02-16T00:58:53.267Z,99098.00
2023-02-16T00:59:03.277Z,99098.00
2023-02-16T00:59:13.292Z,99100.00
2023-02-16T00:59:23.302Z,99098.00
2023-02-16T00:59:33.307Z,99100.00
2023-02-16T00:59:43.317Z,99096.00
2023-02-16T00:59:53.328Z,99098.00
2023-02-16T01:00:03.349Z,99100.00
2023-02-16T01:00:13.407Z,99098.00
2023-02-16T01:00:23.386Z,99102.00
2023-02-16T01:00:33.390Z,99100.00
2023-02-16T01:00:43.400Z,99102.00
2023-02-16T01:00:53.425Z,99102.00
2023-02-16T01:01:03.727Z,99102.00
2023-02-16T01:01:13.560Z,99102.00
2023-02-16T01:01:23.897Z,99102.00
2023-02-16T01:01:33.993Z,99100.00
2023-02-16T01:01:44.039Z,99104.00
2023-02-16T01:01:54.380Z,99102.00
2023-02-16T01:02:04.320Z,99104.00
2023-02-16T01:02:14.373Z,99104.00
2023-02-16T01:02:24.357Z,99104.00
2023-02-16T01:02:34.362Z,99102.00
2023-02-16T01:02:44.368Z,99102.00
2023-02-16T01:02:54.375Z,99102.00
2023-02-16T01:03:04.386Z,99104.00
2023-02-16T01:03:14.423Z,99106.00
2023-02-16T01:03:24.433Z,99106.00
2023-02-16T01:03:34.441Z,99106.00
2023-02-16T01:03:44.457Z,99100.00
2023-02-16T01:03:54.462Z,99104.00
2023-02-16T01:04:04.521Z,99102.00
2023-02-16T01:04:14.535Z,99100.00
2023-02-16T01:04:24.648Z,99100.00
2023-02-16T01:04:34.745Z,99100.00
2023-02-16T01:04:44.952Z,99102.00
2023-02-16T01:04:55.090Z,99098.00
2023-02-16T01:05:05.021Z,99100.00
2023-02-16T01:05:15.016Z,99102.00
2023-02-16T01:05:25.038Z,99102.00
2023-02-16T01:05:35.032Z,99102.00
2023-02-16T01:05:45.034Z,99098.00
2023-02-16T01:05:55.055Z,99100.00
2023-02-16T01:06:05.078Z,99102.00
2023-02-16T01:06:15.222Z,99100.00
2023-02-16T01:06:25.459Z,99104.00
2023-02-16T01:06:35.578Z,99104.00
2023-02-16T01:06:45.614Z,99102.00
2023-02-16T01:06:55.863Z,99102.00
2023-02-16T01:07:05.880Z,99100.00
2023-02-16T01:07:15.885Z,99098.00
2023-02-16T01:07:25.887Z,99096.00
2023-02-16T01:07:35.893Z,99102.00
2023-02-16T01:07:45.898Z,99102.00
2023-02-16T01:07:55.910Z,99098.00
2023-02-16T01:08:05.909Z,99100.00
2023-02-16T01:08:15.920Z,99100.00
2023-02-16T01:08:25.928Z,99098.00
2023-02-16T01:08:35.950Z,99100.00
2023-02-16T01:08:45.979Z,99102.00
2023-02-16T01:08:56.098Z,99102.00
2023-02-16T01:09:06.130Z,99102.00
2023-02-16T01:09:16.117Z,99098.00
2023-02-16T01:09:26.124Z,99098.00
2023-02-16T01:09:36.239Z,99098.00
2023-02-16T01:09:46.380Z,99100.00
2023-02-16T01:09:56.384Z,99100.00
2023-02-16T01:10:06.392Z,99102.00
2023-02-16T01:10:16.411Z,99102.00
2023-02-16T01:10:26.417Z,99100.00
2023-02-16T01:10:36.427Z,99098.00
2023-02-16T01:10:46.430Z,99098.00
2023-02-16T01:10:56.452Z,99098.00
2023-02-16T01:11:06.692Z,99098.00
2023-02-16T01:11:16.548Z,99096.00
2023-02-16T01:11:26.557Z,99098.00
2023-02-16T01:11:36.569Z,99100.00
2023-02-16T01:11:46.609Z,99098.00
2023-02-16T01:11:56.593Z,99098.00
2023-02-16T01:12:06.598Z,99100.00
2023-02-16T01:12:16.722Z,99096.00
2023-02-16T01:12:26.734Z,99098.00
2023-02-16T01:12:37.006Z,99098.00
2023-02-16T01:12:47.005Z,99098.00
2023-02-16T01:12:57.125Z,99096.00
2023-02-16T01:13:07.388Z,99098.00
2023-02-16T01:13:17.398Z,99098.00
2023-02-16T01:13:27.406Z,99096.00
2023-02-16T01:13:37.412Z,99098.00
2023-02-16T01:13:47.457Z,99098.00
2023-02-16T01:13:57.513Z,99098.00
2023-02-16T01:14:07.497Z,99100.00
2023-02-16T01:14:17.505Z,99100.00
2023-02-16T01:14:27.518Z,99098.00
2023-02-16T01:14:37.536Z,99098.00
2023-02-16T01:14:47.540Z,99100.00
2023-02-16T01:14:57.563Z,99098.00
2023-02-16T01:15:07.549Z,99096.00
2023-02-16T01:15:17.552Z,99100.00
2023-02-16T01:15:27.638Z,99098.00
2023-02-16T01:15:37.717Z,99098.00
2023-02-16T01:15:47.813Z,99098.00
2023-02-16T01:15:57.857Z,99096.00
2023-02-16T01:16:07.941Z,99100.00
2023-02-16T01:16:18.089Z,99096.00
2023-02-16T01:16:28.003Z,99096.00
2023-02-16T01:16:38.026Z,99100.00
2023-02-16T01:16:48.030Z,99100.00
2023-02-16T01:16:58.030Z,99098.00
2023-02-16T01:17:08.030Z,99098.00
2023-02-16T01:17:18.053Z,99096.00
2023-02-16T01:17:28.070Z,99098.00
2023-02-16T01:17:38.072Z,99096.00
2023-02-16T01:17:48.081Z,99100.00
2023-02-16T01:17:58.077Z,99096.00
2023-02-16T01:18:08.083Z,99100.00
2023-02-16T01:18:18.101Z,99098.00
2023-02-16T01:18:28.129Z,99096.00
2023-02-16T01:18:38.130Z,99098.00
2023-02-16T01:18:48.167Z,99096.00
2023-02-16T01:18:58.172Z,99094.00
2023-02-16T01:19:08.158Z,99094.00
2023-02-16T01:19:18.285Z,99096.00
2023-02-16T01:19:28.550Z,99094.00
2023-02-16T01:19:38.554Z,99094.00
2023-02-16T01:19:48.554Z,99094.00
2023-02-16T01:19:58.945Z,99094.00
2023-02-16T01:20:08.944Z,99098.00
2023-02-16T01:20:18.962Z,99096.00
2023-02-16T01:20:28.954Z,99098.00
2023-02-16T01:20:39.087Z,99098.00
2023-02-16T01:20:49.095Z,99098.00
2023-02-16T01:20:59.094Z,99094.00
2023-02-16T01:21:09.105Z,99098.00
2023-02-16T01:21:19.119Z,99094.00
2023-02-16T01:21:29.109Z,99098.00
2023-02-16T01:21:39.376Z,99100.00
2023-02-16T01:21:49.378Z,99098.00
2023-02-16T01:21:59.389Z,99100.00
2023-02-16T01:22:09.387Z,99100.00
2023-02-16T01:22:19.393Z,99098.00
2023-02-16T01:22:29.394Z,99098.00
2023-02-16T01:22:39.513Z,99100.00
2023-02-16T01:22:49.517Z,99100.00
2023-02-16T01:22:59.640Z,99098.00
2023-02-16T01:23:09.643Z,99098.00
2023-02-16T01:23:19.772Z,99100.00
2023-02-16T01:23:29.801Z,99096.00
2023-02-16T01:23:39.803Z,99100.00
2023-02-16T01:23:49.797Z,99094.00
2023-02-16T01:23:59.820Z,99098.00
2023-02-16T01:24:09.850Z,99094.00
2023-02-16T01:24:19.833Z,99098.00
2023-02-16T01:24:29.853Z,99092.00
2023-02-16T01:24:39.849Z,99094.00
2023-02-16T01:24:49.871Z,99094.00
2023-02-16T01:24:59.872Z,99096.00
2023-02-16T01:25:09.877Z,99096.00
2023-02-16T01:25:19.890Z,99096.00
2023-02-16T01:25:29.899Z,99096.00
2023-02-16T01:25:39.955Z,99096.00
2023-02-16T01:25:49.969Z,99096.00
2023-02-16T01:26:00.120Z,99100.00
2023-02-16T01:26:10.361Z,99100.00
2023-02-16T01:26:20.484Z,99100.00
2023-02-16T01:26:30.496Z,99098.00
2023-02-16T01:26:40.748Z,99100.00
2023-02-16T01:26:50.746Z,99102.00
2023-02-16T01:27:00.750Z,99100.00
2023-02-16T01:27:10.757Z,99102.00
2023-02-16T01:27:20.758Z,99100.00
2023-02-16T01:27:30.770Z,99098.00
2023-02-16T01:27:40.877Z,99100.00
2023-02-16T01:27:50.882Z,99096.00
2023-02-16T01:28:01.002Z,99098.00
2023-02-16T01:28:11.003Z,99096.00
2023-02-16T01:28:21.135Z,99098.00
2023-02-16T01:28:31.133Z,99098.00
2023-02-16T01:28:41.253Z,99096.00
2023-02-16T01:28:51.521Z,99098.00
2023-02-16T01:29:01.568Z,99098.00
2023-02-16T01:29:11.568Z,99096.00
2023-02-16T01:29:21.566Z,99094.00
2023-02-16T01:29:31.692Z,99094.00
2023-02-16T01:29:41.692Z,99096.00
2023-02-16T01:29:51.728Z,99094.00
2023-02-16T01:30:01.801Z,99096.00
2023-02-16T01:30:11.824Z,99098.00
2023-02-16T01:30:21.977Z,99096.00
2023-02-16T01:30:32.063Z,99096.00
2023-02-16T01:30:41.993Z,99098.00
2023-02-16T01:30:52.131Z,99098.00
2023-02-16T01:31:02.548Z,99096.00
2023-02-16T01:31:12.507Z,99098.00
2023-02-16T01:31:22.514Z,99096.00
2023-02-16T01:31:32.559Z,99094.00
2023-02-16T01:31:42.590Z,99100.00
2023-02-16T01:31:52.712Z,99100.00
2023-02-16T01:32:02.641Z,99096.00
2023-02-16T01:32:12.779Z,99094.00
2023-02-16T01:32:22.762Z,99094.00
2023-02-16T01:32:32.684Z,99096.00
2023-02-16T01:32:42.692Z,99096.00
2023-02-16T01:32:52.687Z,99096.00
2023-02-16T01:33:02.690Z,99094.00
2023-02-16T01:33:12.810Z,99094.00
2023-02-16T01:33:22.822Z,99098.00
2023-02-16T01:33:32.948Z,99092.00
2023-02-16T01:33:42.951Z,99094.00
2023-02-16T01:33:52.944Z,99094.00
2023-02-16T01:34:03.078Z,99094.00
2023-02-16T01:34:13.201Z,99092.00
2023-02-16T01:34:23.202Z,99092.00
2023-02-16T01:34:33.456Z,99094.00
2023-02-16T01:34:43.483Z,99092.00
2023-02-16T01:34:53.477Z,99092.00
2023-02-16T01:35:03.478Z,99092.00
2023-02-16T01:35:13.620Z,99090.00
2023-02-16T01:35:23.620Z,99092.00
2023-02-16T01:35:33.756Z,99092.00
2023-02-16T01:35:43.772Z,99090.00
2023-02-16T01:35:53.776Z,99092.00
2023-02-16T01:36:03.782Z,99092.00
2023-02-16T01:36:13.916Z,99092.00
2023-02-16T01:36:23.914Z,99094.00
2023-02-16T01:36:34.054Z,99092.00
2023-02-16T01:36:44.330Z,99092.00
2023-02-16T01:36:54.449Z,99088.00
2023-02-16T01:37:04.453Z,99092.00
2023-02-16T01:37:14.719Z,99086.00
2023-02-16T01:37:24.711Z,99086.00
2023-02-16T01:37:34.716Z,99086.00
2023-02-16T01:37:44.728Z,99086.00
2023-02-16T01:37:54.742Z,99084.00
2023-02-16T01:38:04.740Z,99088.00
2023-02-16T01:38:17.046Z,99084.00
2023-02-16T01:38:24.916Z,99088.00
2023-02-16T01:38:35.051Z,99086.00
2023-02-16T01:38:45.042Z,99086.00
2023-02-16T01:38:55.186Z,99086.00
2023-02-16T01:39:05.174Z,99086.00
2023-02-16T01:39:15.321Z,99086.00
2023-02-16T01:39:25.561Z,99084.00
2023-02-16T01:39:35.573Z,99084.00
2023-02-16T01:39:45.581Z,99084.00
2023-02-16T01:39:55.573Z,99086.00
2023-02-16T01:40:05.622Z,99086.00
2023-02-16T01:40:15.619Z,99086.00
2023-02-16T01:40:25.621Z,99086.00
2023-02-16T01:40:35.743Z,99086.00
2023-02-16T01:40:45.749Z,99088.00
2023-02-16T01:40:55.872Z,99088.00
2023-02-16T01:41:06.224Z,99088.00
2023-02-16T01:41:16.039Z,99088.00
2023-02-16T01:41:26.040Z,99090.00
2023-02-16T01:41:36.415Z,99088.00
2023-02-16T01:41:46.417Z,99090.00
2023-02-16T01:41:56.553Z,99090.00
2023-02-16T01:42:06.796Z,99090.00
2023-02-16T01:42:16.798Z,99090.00
2023-02-16T01:42:26.800Z,99088.00
2023-02-16T01:42:37.179Z,99090.00
2023-02-16T01:42:47.177Z,99088.00
2023-02-16T01:42:57.308Z,99088.00
2023-02-16T01:43:07.587Z,99088.00
2023-02-16T01:43:17.716Z,99088.00
2023-02-16T01:43:27.714Z,99088.00
2023-02-16T01:43:37.984Z,99086.00
2023-02-16T01:43:48.009Z,99088.00
2023-02-16T01:43:58.031Z,99088.00
2023-02-16T01:44:08.041Z,99088.00
2023-02-16T01:44:18.076Z,99086.00
2023-02-16T01:44:28.077Z,99084.00
2023-02-16T01:44:38.078Z,99086.00
2023-02-16T01:44:48.086Z,99088.00
2023-02-16T01:44:58.098Z,99088.00
2023-02-16T01:45:08.102Z,99088.00
2023-02-16T01:45:18.112Z,99090.00
2023-02-16T01:45:28.119Z,99090.00
2023-02-16T01:45:38.240Z,99088.00
2023-02-16T01:45:48.239Z,99086.00
2023-02-16T01:45:58.365Z,99090.00
2023-02-16T01:46:08.409Z,99088.00
2023-02-16T01:46:18.484Z,99088.00
2023-02-16T01:46:28.675Z,99090.00
2023-02-16T01:46:38.782Z,99090.00
2023-02-16T01:46:48.749Z,99092.00
2023-02-16T01:46:59.017Z,99092.00
2023-02-16T01:47:09.018Z,99090.00
2023-02-16T01:47:19.013Z,99086.00
2023-02-16T01:47:29.013Z,99088.00
2023-02-16T01:47:39.027Z,99086.00
2023-02-16T01:47:49.023Z,99090.00
2023-02-16T01:47:59.040Z,99088.00
2023-02-16T01:48:09.049Z,99088.00
2023-02-16T01:48:19.047Z,99090.00
2023-02-16T01:48:29.050Z,99088.00
2023-02-16T01:48:39.047Z,99090.00
2023-02-16T01:48:49.059Z,99090.00
2023-02-16T01:48:59.057Z,99090.00
2023-02-16T01:49:09.056Z,99088.00
2023-02-16T01:49:19.192Z,99090.00
2023-02-16T01:49:29.193Z,99090.00
2023-02-16T01:49:39.195Z,99090.00
2023-02-16T01:49:49.454Z,99090.00
2023-02-16T01:50:02.134Z,99092.00
2023-02-16T01:50:09.773Z,99088.00
2023-02-16T01:50:19.790Z,99088.00
2023-02-16T01:50:29.795Z,99088.00
2023-02-16T01:50:39.795Z,99088.00
2023-02-16T01:50:49.804Z,99088.00
2023-02-16T01:50:59.803Z,99088.00
2023-02-16T01:51:09.824Z,99088.00
2023-02-16T01:51:19.805Z,99086.00
2023-02-16T01:51:29.822Z,99086.00
2023-02-16T01:51:39.812Z,99084.00
2023-02-16T01:51:49.808Z,99086.00
2023-02-16T01:51:59.813Z,99086.00
2023-02-16T01:52:09.821Z,99086.00
2023-02-16T01:52:19.937Z,99086.00
2023-02-16T01:52:29.946Z,99086.00
2023-02-16T01:52:39.971Z,99084.00
2023-02-16T01:52:49.970Z,99086.00
2023-02-16T01:53:00.229Z,99086.00
2023-02-16T01:53:10.242Z,99086.00
2023-02-16T01:53:20.254Z,99086.00
2023-02-16T01:53:30.258Z,99088.00
2023-02-16T01:53:40.382Z,99086.00
2023-02-16T01:53:50.386Z,99086.00
2023-02-16T01:54:00.389Z,99088.00
2023-02-16T01:54:10.408Z,99088.00
2023-02-16T01:54:20.562Z,99084.00
2023-02-16T01:54:30.417Z,99086.00
2023-02-16T01:54:40.665Z,99088.00
2023-02-16T01:54:50.686Z,99088.00
2023-02-16T01:55:00.743Z,99086.00
2023-02-16T01:55:10.730Z,99084.00
2023-02-16T01:55:20.755Z,99082.00
2023-02-16T01:55:30.760Z,99084.00
2023-02-16T01:55:40.765Z,99084.00
2023-02-16T01:55:50.772Z,99084.00
2023-02-16T01:56:00.773Z,99086.00
2023-02-16T01:56:10.776Z,99084.00
2023-02-16T01:56:21.201Z,99088.00
2023-02-16T01:56:31.190Z,99086.00
2023-02-16T01:56:41.309Z,99086.00
2023-02-16T01:56:51.570Z,99088.00
2023-02-16T01:57:01.575Z,99086.00
2023-02-16T01:57:11.581Z,99086.00
2023-02-16T01:57:21.590Z,99086.00
2023-02-16T01:57:31.603Z,99086.00
2023-02-16T01:57:41.655Z,99086.00
2023-02-16T01:57:51.661Z,99086.00
2023-02-16T01:58:01.780Z,99088.00